x

New Dungeness - 17 Nm Ne Of Port Angeles, Wa (46088) Wave Buoy

9:20pm - Mon 26th Sep 2016 All times are PDT. -7 hours from GMT.

  • Sig Wave height 2.0ft
  • Swell Direction
  • Peak Period 4s
  • Average Period 4s
  • Wind
    11mph, 13mph gusts
  • Sea Temp 51°f
  • Air Temp 56°f
  • Sea Pressure 1016.7mb
  • New Dungeness - 17 Nm Ne Of Port Angeles, Wa
  • New Dungeness - 17 Nm Ne Of Port Angeles, Wa

More Historic Weather Station data

Upgrade to MSW Pro to gain access to the past 30 days of data for over 8000 Wavebouys and Weather Stations around the globe.

Join Pro

Comparision Forecast

View Surf forecast
   
Mon 09/26 9:20pm 2ft 4s 4s 11 13 mph 1016.7mb 51f 56f
8:50pm 1.6ft 4s 4s 16 20 mph 1016.3mb 51f 57f
8:20pm 1.6ft 4s 4s 16 18 mph 1015.9mb 51f 58f
7:50pm 1.3ft 4s 3s 16 20 mph 1015.6mb 52f 59f
7:20pm 1ft 3s 3s 16 18 mph 1015.3mb 52f 57f
6:50pm 0.7ft  -  3s 18 20 mph 1015.1mb 52f 56f
6:20pm 0.3ft  -  3s 16 18 mph 1015mb 52f 56f
5:50pm 0.3ft  -  3s 11 13 mph 1015.4mb 52f 55f
5:20pm 0.3ft  -  4s 11 13 mph 1015.6mb 53f 55f
4:50pm 0.3ft  -  4s 7 9 mph 1016mb 53f 56f
4:20pm 0.3ft  -  4s 9 11 mph 1016.1mb 53f 55f
3:50pm 0.3ft  -  4s 7
mph
1016.1mb 54f 55f
3:20pm 0.3ft  -  4s 7
mph
1016.3mb 53f 54f
2:50pm 0.3ft  -  4s 7
mph
1016.4mb 54f 55f
2:20pm 0.3ft  -  4s 7
mph
1016.7mb 53f 56f
1:50pm 0.3ft  -  4s 7
mph
1017mb 53f 58f
1:20pm 0.3ft  -  4s 4
mph
1017.4mb 53f 56f
12:50pm 0.7ft  -   -  2
mph
1017.5mb 52f 55f
12:20pm 0.7ft  -   -  4
mph
1018.1mb 53f 55f
11:50am 0.7ft  -  4s 2 4 mph 1018.1mb 54f 55f
11:20am 0.7ft  -  4s 2 4 mph 1018.4mb 53f 55f
10:50am 0.7ft  -  4s 4
mph
1018.8mb 52f 54f
10:20am 0.7ft  -  4s 4
mph
1019.2mb 51f 54f
9:50am 0.3ft  -  5s 7
mph
1019.3mb 51f 54f
9:20am 0.7ft  -  5s 2
mph
1020mb 51f 53f
8:50am 0.7ft  -  6s 2
mph
1019.9mb 51f 53f
8:20am 0.3ft  -  6s 4
mph
1020.2mb 51f 53f
7:50am 0.3ft  -  6s 7 9 mph 1020.3mb 51f 53f
7:20am 0.3ft  -  5s 4 7 mph 1020.3mb 51f 53f
6:50am 0.3ft  -  3s 7 9 mph 1020.5mb 52f 53f
6:20am 0.3ft  -  3s 9
mph
1020.6mb 52f 54f
5:50am 0.3ft  -  3s 9 11 mph 1020.9mb 51f 53f
5:20am 0.3ft  -  3s 7 9 mph 1021mb 51f 53f
4:50am 0.3ft  -  3s 4 7 mph 1021.3mb 51f 53f
4:20am 0.3ft  -  3s 7 9 mph 1021.2mb 51f 53f
3:50am 0.7ft  -  3s 11 16 mph 1021.7mb 51f 54f
3:20am 0.3ft  -  3s 13 16 mph 1022.1mb 51f 55f
2:50am 0.3ft  -  3s 9 11 mph 1022.6mb 51f 54f
2:20am 0.3ft  -  3s 9 11 mph 1022.9mb 51f 54f
1:50am 0.3ft  -  3s 11 13 mph 1023.2mb 51f 56f
1:20am 0.3ft  -  3s 9 11 mph 1023.6mb 51f 55f
12:50am 0.3ft  -  3s 7 9 mph 1023.7mb 51f 54f
12:20am 0.7ft  -  3s 9 11 mph 1023.9mb 51f 54f
Sun 09/25 11:50pm 0.7ft  -  3s 11 13 mph 1024mb 51f 55f
11:20pm 0.7ft  -  3s 13
mph
1024.2mb 51f 55f
10:50pm 0.7ft  -  3s 11 13 mph 1024.3mb 51f 55f
10:20pm 0.3ft  -  3s 9 11 mph 1024.6mb 51f 56f
9:50pm 0.3ft  -  3s 9 11 mph 1024.7mb 51f 56f
9:20pm 0.3ft  -  3s 9
mph
1025mb 51f 55f
8:50pm 0.7ft  -  5s 11 13 mph 1025.1mb 51f 56f
8:20pm 0.3ft  -  4s 11 13 mph 1025.2mb 51f 55f
7:50pm 0.3ft  -  4s 11
mph
1025.3mb 51f 56f
7:20pm 0.3ft  -  4s 9 11 mph 1025.5mb 52f 56f
6:50pm 0.3ft  -  4s 9 11 mph 1025.6mb 52f 56f
6:20pm 0.3ft  -  5s 11 13 mph 1026.1mb 52f 57f
5:50pm 0.7ft  -  5s 9 11 mph 1026.4mb 52f 57f
5:20pm 0.3ft  -  4s 11
mph
1026.8mb 53f 58f
4:50pm 0.3ft  -  4s 11
mph
1027mb 53f 57f
4:20pm 0.7ft  -  4s 9 11 mph 1027.2mb 53f 56f
3:50pm 0.3ft  -  3s 9
mph
1027.7mb 53f 56f
3:20pm 0.3ft  -  3s 9
mph
1028.2mb 53f 56f
2:50pm 0.3ft  -  3s 9
mph
1028.4mb 53f 56f
2:20pm 0.3ft  -  3s 9
mph
1028.7mb 52f 55f
1:50pm 0.3ft  -  3s 7
mph
1028.9mb 52f 55f
1:20pm 0.3ft  -  3s 7
mph
1029mb 52f 55f
12:50pm 0.3ft  -  4s 7 9 mph 1029.1mb 52f 55f
12:20pm 0.3ft  -  4s 9 11 mph 1029.3mb 52f 55f
11:50am 0.3ft  -  4s 9 11 mph 1029.4mb 52f 54f
11:20am 0.3ft  -  4s 9
mph
1029.3mb 52f 54f
10:50am 0.3ft  -  4s 9
mph
1029.4mb 52f 54f
10:20am 0.3ft  -  5s 9 11 mph 1029.3mb 52f 53f
9:50am 0.3ft  -  5s 11
mph
1029.3mb 52f 53f
9:20am 0.7ft  -  6s 11
mph
1029mb 51f 53f
8:50am 0.3ft  -  6s 11 13 mph 1029mb 51f 53f
8:20am 0.3ft  -  6s 9 11 mph 1028.9mb 52f 53f
7:50am 0.3ft  -  6s 9
mph
1028.7mb 52f 53f
7:20am 0.3ft  -  6s 7 9 mph 1028.5mb 52f 53f
6:50am 0.3ft  -  5s 7 9 mph 1028.3mb 52f 53f
6:20am 0.3ft  -  4s 9
mph
1028.3mb 52f 53f
5:50am 0.3ft  -  4s 9
mph
1028.2mb 52f 53f
5:20am 0.3ft  -  5s 7 9 mph 1028.1mb 52f 53f
4:50am 0.3ft  -  4s 7 9 mph 1028mb 53f 53f
4:20am 0.3ft  -  4s 7 9 mph 1028.1mb 52f 53f
3:50am 0.3ft  -  4s 7 9 mph 1028mb 52f 53f
3:20am 0.3ft  -  5s 7 9 mph 1028.1mb 52f 53f
2:50am 0.3ft  -  4s 7
mph
1028.1mb 53f 53f
2:20am 0.3ft  -  5s 4
mph
1028.3mb 52f 53f
1:50am 0.3ft  -  5s 2
mph
1028.5mb 51f 54f
1:20am 0.3ft  -  5s  -  mph 1028.3mb 51f 54f
12:50am 0.3ft  -  5s  -  2 mph 1028.5mb 51f 54f
12:20am 0.3ft  -  4s 2 4 mph 1028.9mb 51f 54f
Sat 09/24 11:50pm 0.3ft  -  5s 4
mph
1028.9mb 51f 53f
11:20pm 0.3ft  -  5s 4
mph
1028.6mb 51f 53f
10:50pm 0.3ft  -  5s 4
mph
1028.2mb 51f 53f
10:20pm 0.3ft  -  5s 2 4 mph 1028mb 51f 53f
9:50pm 0.3ft  -  4s 2 4 mph 1027.9mb 51f 53f
9:20pm 0.3ft  -  5s 4 7 mph 1027.8mb 51f 53f
8:50pm 0.3ft  -  4s 7
mph
1027.4mb 51f 53f
8:20pm 0.7ft  -  5s 7 9 mph 1027.4mb 51f 53f
7:50pm 0.3ft  -  5s 7
mph
1026.8mb 51f 53f
7:20pm 0.3ft  -  5s 2 4 mph 1026.5mb 51f 55f
6:50pm 0.7ft  -  6s 2 4 mph 1026.2mb 51f 53f
6:20pm 0.3ft  -  4s 4 7 mph 1026.8mb 51f 53f
5:50pm 0.3ft  -  4s 4 7 mph 1026.5mb 52f 53f
5:20pm 0.3ft  -  4s 4 7 mph 1026.7mb 52f 53f
4:50pm 0.3ft  -  4s 7
mph
1026.9mb 52f 53f
4:20pm 0.3ft  -  4s 2 4 mph 1026.8mb 52f 53f
3:50pm 0.3ft  -  4s 4
mph
1026.8mb 52f 53f
3:20pm 0.3ft  -  4s 4
mph
1026.8mb 52f 53f
2:50pm 0.7ft  -  4s 4
mph
1027.2mb 52f 53f
2:20pm 0.7ft  -  5s 2 4 mph 1027.2mb 52f 53f
1:50pm 0.3ft  -  4s 4
mph
1027.7mb 52f 53f
1:20pm 0.7ft  -  4s 4 7 mph 1028.1mb 52f 53f
12:50pm 0.7ft  -  4s  -  2 mph 1027.9mb 52f 53f
12:20pm 0.3ft  -  4s 4
mph
1028.3mb 52f 53f
11:50am 0.7ft  -  4s 4
mph
1028.7mb 52f 53f
11:20am 0.7ft  -  4s 4
mph
1028.5mb 51f 53f
10:50am 0.7ft  -  4s 4
mph
1028.3mb 51f 53f
10:20am 0.7ft  -  4s 2 4 mph 1028.3mb 52f 53f
9:50am 1ft 6s 5s 2 4 mph 1027.6mb 52f 52f
9:20am 1ft 6s 5s 4
mph
1027.3mb 51f 52f
8:50am 0.7ft  -  4s 2 4 mph 1027.2mb 51f 52f
8:20am 0.7ft  -  4s 2
mph
1027.1mb 51f 52f
7:50am 0.7ft  -  4s 4
mph
1027.2mb 51f 52f
7:20am 0.7ft  -  4s 2
mph
1026.4mb 51f 51f
6:50am 0.7ft  -  4s 4
mph
1026.2mb 51f 52f
6:20am 0.7ft  -  4s 4
mph
1025.8mb 51f 52f
5:50am 0.7ft  -  5s 4 7 mph 1025.5mb 51f 51f
5:20am 0.7ft  -  4s 4 7 mph 1025.2mb 51f 51f
4:50am 0.7ft  -  4s 4
mph
1024.9mb 51f 51f
4:20am 0.7ft  -  4s 2
mph
1024.7mb 51f 52f
3:50am 0.7ft  -  4s 4 7 mph 1024.5mb 51f 52f
3:20am 0.7ft  -  4s 4 7 mph 1024.4mb 51f 53f
2:50am 0.7ft  -  4s 4 7 mph 1024.1mb 51f 52f
2:20am 0.7ft  -  4s 4
mph
1023.8mb 51f 53f
1:50am 0.7ft  -  4s 7
mph
1023.6mb 51f 53f
1:20am 0.7ft  -  4s 7 9 mph 1023mb 51f 53f
12:50am 0.7ft  -  3s 9 11 mph 1022.6mb 51f 53f
12:20am 0.7ft  -  3s 9 11 mph 1022.2mb 51f 53f
Fri 09/23 11:50pm 1ft 13s 3s 11 13 mph 1022.1mb 51f 55f
11:20pm 1ft 3s 3s 9 11 mph 1021.7mb 51f 56f
10:50pm 0.7ft  -  3s 13 16 mph 1021.3mb 51f 56f
10:20pm 0.7ft  -  3s 16 18 mph 1020.7mb 51f 56f
9:50pm 0.7ft  -  4s 11 13 mph 1020.1mb 51f 54f
9:20pm 0.7ft  -  3s 13 16 mph 1019.7mb 51f 54f
8:50pm 0.7ft  -  3s 9 11 mph 1019.3mb 51f 54f
8:20pm 1ft 7s 3s 7 9 mph 1018.4mb 51f 53f
7:50pm 1ft 3s 3s 4
mph
1017.7mb 51f 54f
7:20pm 1ft 3s 3s 7 9 mph 1017.2mb 51f 54f
6:50pm 1.3ft 3s 3s 9 11 mph 1016.9mb 51f 55f
6:20pm 1.6ft 3s 3s 9 11 mph 1016.2mb 51f 55f
5:50pm 2ft 4s 3s 13 16 mph 1015.4mb 51f 55f
5:20pm 2ft 4s 3s 16 18 mph 1015.1mb 52f 55f
4:50pm 2ft 4s 4s 13 16 mph 1015mb 52f 55f
4:20pm 2ft 4s 4s 7
mph
1014.8mb 52f 54f
3:50pm 1.6ft 4s 4s 4 7 mph 1014.5mb 51f 53f
3:20pm 1.6ft 4s 4s 7
mph
1013.9mb 52f 52f
2:50pm 2ft 4s 4s 4
mph
1013.6mb 52f 53f
2:20pm 2.5ft 5s 4s 4
mph
1013mb 51f 53f
1:50pm 2.5ft 5s 4s 2
mph
1012.8mb 51f 53f
1:20pm 3ft 6s 4s 7
mph
1012.4mb 51f 52f
12:50pm 3.5ft 6s 4s 9
mph
1012.4mb 51f 52f
12:20pm 3.5ft 5s 4s 7 9 mph 1012.1mb 51f 54f
11:50am 4ft 5s 4s 9 13 mph 1011.4mb 51f 54f
11:20am 3.5ft 5s 4s 20 27 mph 1011.4mb 51f 54f
10:50am 3.5ft 5s 4s 25 31 mph 1011mb 51f 55f
10:20am 3.5ft 5s 4s 22 29 mph 1010.9mb 51f 54f
9:50am 2.5ft 5s 4s 20 27 mph 1010.9mb 51f 55f
9:20am 2ft 4s 4s 22 27 mph 1010.9mb 51f 54f
8:50am 1.3ft 3s 3s 22 27 mph 1011.5mb 51f 54f
8:20am 1ft 2s 3s 20 25 mph 1012mb 51f 54f
7:50am 1ft 6s 4s 16 18 mph 1013mb 51f 53f
7:20am 0.7ft  -  5s 11 16 mph 1013.7mb 51f 53f
6:50am 0.7ft  -  5s 11 13 mph 1013.9mb 51f 52f
6:20am 0.7ft  -  4s 7 9 mph 1014.8mb 51f 53f
5:50am 0.7ft  -  4s 7 9 mph 1015.3mb 51f 52f